Time;durP1;ratioP1;P1;durP2;ratioP2;P2;SDS_P1;SDS_P2;PMS_P1;PMS_P2;Temp;Humidity;BMP_temperature;BMP_pressure;BME280_temperature;BME280_humidity;BME280_pressure;Samples;Min_cycle;Max_cycle;Signal;HPM_P1;HPM_P2
2022/08/25 00:00:00;;;;;;;378.10;300.00;;;;;;;24.23;90.41;99224.16;348767;28;1333;-75
2022/08/25 00:00:11;;;;;;;379.83;307.35;;;;;;;24.21;90.87;99219.81;351683;28;1086;-75
2022/08/25 00:00:21;;;;;;;380.48;306.88;;;;;;;24.22;90.44;99226.00;348182;28;1713;-75
2022/08/25 00:00:32;;;;;;;382.37;307.50;;;;;;;24.21;90.85;99225.16;344484;28;972;-75
2022/08/25 00:00:43;;;;;;;384.60;306.95;;;;;;;24.23;90.71;99225.00;342217;28;967;-75
2022/08/25 00:00:53;;;;;;;386.52;310.05;;;;;;;24.23;91.42;99221.47;340208;28;1445;-75
2022/08/25 00:01:13;;;;;;;384.70;310.23;;;;;;;24.21;91.36;99222.47;343437;28;1332;-75
2022/08/25 00:01:29;;;;;;;385.17;307.15;;;;;;;24.24;91.36;99223.16;342355;28;2107;-75
2022/08/25 00:01:45;;;;;;;384.17;300.17;;;;;;;24.23;91.31;99224.16;340814;29;834;-75
2022/08/25 00:02:00;;;;;;;379.38;294.25;;;;;;;24.22;91.17;99226.00;340171;29;1936;-75
2022/08/25 00:02:11;;;;;;;379.83;301.80;;;;;;;24.20;91.11;99223.47;338058;29;958;-77
2022/08/25 00:02:21;;;;;;;380.55;304.42;;;;;;;24.23;90.71;99226.81;335317;29;1406;-76
2022/08/25 00:02:31;;;;;;;380.10;304.07;;;;;;;24.23;90.49;99226.81;332962;29;1349;-76
2022/08/25 00:02:42;;;;;;;380.93;306.80;;;;;;;24.24;90.41;99228.50;335691;29;3366;-76
2022/08/25 00:02:53;;;;;;;380.57;304.83;;;;;;;24.22;90.53;99226.00;338376;29;1405;-75
2022/08/25 00:03:04;;;;;;;380.17;306.15;;;;;;;24.23;90.33;99226.81;336659;29;1640;-75
2022/08/25 00:03:15;;;;;;;379.60;303.03;;;;;;;24.23;90.45;99226.81;335491;29;1377;-75
2022/08/25 00:03:25;;;;;;;381.42;308.17;;;;;;;24.23;89.95;99221.47;337938;29;1321;-75
2022/08/25 00:03:35;;;;;;;381.53;305.70;;;;;;;24.21;89.93;99224.31;338148;29;962;-75
2022/08/25 00:03:46;;;;;;;379.35;307.58;;;;;;;24.21;90.03;99229.66;335934;29;1834;-76
2022/08/25 00:04:00;;;;;;;378.37;304.60;;;;;;;24.20;90.22;99228.81;338089;29;1313;-76
2022/08/25 00:04:12;;;;;;;384.55;303.30;;;;;;;24.19;90.26;99231.66;336673;29;1548;-76
2022/08/25 00:04:22;;;;;;;385.35;302.08;;;;;;;24.19;90.37;99232.50;335187;29;1393;-76
2022/08/25 00:04:34;;;;;;;383.52;302.13;;;;;;;24.17;90.15;99223.78;332610;29;1849;-76
2022/08/25 00:04:45;;;;;;;383.42;305.88;;;;;;;24.19;90.37;99223.63;330554;29;1313;-76
2022/08/25 00:04:55;;;;;;;382.27;307.13;;;;;;;24.18;90.59;99228.13;334779;29;2647;-76
2022/08/25 00:05:06;;;;;;;377.53;302.80;;;;;;;24.19;90.32;99232.50;332826;29;3930;-75
2022/08/25 00:05:16;;;;;;;379.05;300.88;;;;;;;24.18;90.35;99225.47;330463;29;5351;-75
2022/08/25 00:05:27;;;;;;;380.77;305.20;;;;;;;24.18;90.13;99225.47;329242;30;1218;-75
2022/08/25 00:05:38;;;;;;;389.00;313.30;;;;;;;24.17;90.17;99229.13;328602;29;2221;-75
2022/08/25 00:05:48;;;;;;;389.53;312.27;;;;;;;24.17;89.92;99233.66;330552;29;3253;-75
2022/08/25 00:05:59;;;;;;;383.38;304.00;;;;;;;24.17;89.89;99228.28;330484;29;1276;-75
2022/08/25 00:06:09;;;;;;;380.87;301.77;;;;;;;24.17;90.01;99234.47;331190;29;970;-75
2022/08/25 00:06:20;;;;;;;380.27;301.50;;;;;;;24.17;90.19;99234.47;328408;30;1650;-75
2022/08/25 00:06:30;;;;;;;379.55;306.42;;;;;;;24.17;90.57;99228.28;324388;30;1271;-75
2022/08/25 00:06:42;;;;;;;383.17;309.17;;;;;;;24.15;90.60;99233.81;326741;30;1246;-75
2022/08/25 00:06:54;;;;;;;386.15;307.00;;;;;;;24.12;90.49;99228.78;327838;30;2368;-75
2022/08/25 00:07:04;;;;;;;389.30;299.80;;;;;;;24.09;90.36;99221.06;327616;30;2382;-75
2022/08/25 00:07:15;;;;;;;385.83;300.42;;;;;;;24.08;90.47;99227.41;324355;30;2138;-75
2022/08/25 00:07:25;;;;;;;385.23;305.07;;;;;;;24.07;90.52;99230.25;320534;30;2730;-75
2022/08/25 00:07:35;;;;;;;383.67;309.27;;;;;;;24.08;90.62;99229.25;320563;30;2786;-75
2022/08/25 00:07:46;;;;;;;385.03;305.23;;;;;;;24.07;90.74;99232.91;323038;30;1831;-75
2022/08/25 00:07:56;;;;;;;385.93;305.43;;;;;;;24.07;90.80;99233.75;325595;30;1172;-75
2022/08/25 00:08:07;;;;;;;384.23;301.65;;;;;;;24.07;90.71;99228.41;325926;30;1331;-75
2022/08/25 00:08:17;;;;;;;381.30;300.48;;;;;;;24.07;90.86;99235.59;322834;30;1796;-75
2022/08/25 00:08:28;;;;;;;385.40;305.23;;;;;;;24.07;90.62;99239.09;322735;30;1595;-75
2022/08/25 00:08:38;;;;;;;389.07;311.83;;;;;;;24.07;90.70;99233.75;322020;30;2852;-76
2022/08/25 00:08:49;;;;;;;389.65;313.55;;;;;;;24.08;90.66;99230.06;320398;30;2804;-76
2022/08/25 00:08:59;;;;;;;383.20;307.25;;;;;;;24.07;90.39;99239.09;317447;31;823;-76
2022/08/25 00:09:11;;;;;;;382.53;306.67;;;;;;;24.09;90.43;99233.59;317790;31;3333;-76
2022/08/25 00:09:23;;;;;;;382.73;308.92;;;;;;;24.09;90.32;99244.28;314081;31;3378;-76
2022/08/25 00:09:34;;;;;;;387.63;315.60;;;;;;;24.09;90.16;99242.47;315616;31;3599;-76
2022/08/25 00:09:44;;;;;;;388.88;319.85;;;;;;;24.10;90.47;99238.78;316191;31;1337;-76
2022/08/25 00:09:54;;;;;;;388.23;316.80;;;;;;;24.10;90.32;99238.78;313630;31;3449;-75
2022/08/25 00:10:05;;;;;;;385.20;313.77;;;;;;;24.06;90.36;99237.41;311773;31;2491;-75
2022/08/25 00:10:16;;;;;;;381.30;308.70;;;;;;;24.08;90.60;99240.78;312285;31;2144;-75
2022/08/25 00:10:27;;;;;;;382.55;311.13;;;;;;;24.07;90.20;99244.44;315009;31;1240;-75
2022/08/25 00:10:37;;;;;;;382.08;308.42;;;;;;;24.07;90.20;99241.78;316308;31;2673;-76
2022/08/25 00:10:48;;;;;;;381.45;304.70;;;;;;;24.07;90.64;99238.25;315326;31;3756;-76
2022/08/25 00:10:58;;;;;;;378.60;299.67;;;;;;;24.08;90.15;99239.94;313923;31;1338;-76
2022/08/25 00:11:11;;;;;;;378.07;301.13;;;;;;;24.08;90.14;99239.94;314011;31;3991;-76
2022/08/25 00:11:22;;;;;;;381.05;304.80;;;;;;;24.09;90.48;99245.13;314738;31;4646;-76
2022/08/25 00:11:33;;;;;;;384.48;307.23;;;;;;;24.09;90.19;99241.63;313554;31;4604;-76
2022/08/25 00:11:44;;;;;;;387.10;305.33;;;;;;;24.08;90.13;99243.44;314413;31;3339;-75
2022/08/25 00:11:55;;;;;;;386.30;305.88;;;;;;;24.09;89.97;99237.09;312145;31;4786;-75
2022/08/25 00:12:05;;;;;;;385.70;303.45;;;;;;;24.08;90.11;99240.78;313115;31;4756;-75
2022/08/25 00:12:17;;;;;;;387.03;305.43;;;;;;;24.08;90.00;99238.09;313487;31;1570;-75
2022/08/25 00:12:27;;;;;;;383.13;305.25;;;;;;;24.08;90.15;99240.78;310510;31;2082;-76
2022/08/25 00:12:37;;;;;;;380.67;305.43;;;;;;;24.06;90.51;99239.25;308186;31;3390;-76
2022/08/25 00:12:48;;;;;;;379.77;307.35;;;;;;;24.01;90.60;99239.72;307613;31;3873;-76
2022/08/25 00:12:58;;;;;;;384.77;305.67;;;;;;;24.02;90.62;99240.56;309660;31;958;-76
2022/08/25 00:13:08;;;;;;;387.27;311.27;;;;;;;24.00;90.61;99243.41;308148;31;5319;-76
2022/08/25 00:13:19;;;;;;;386.40;309.88;;;;;;;23.99;90.67;99236.38;303417;32;5931;-76
2022/08/25 00:13:29;;;;;;;383.17;312.47;;;;;;;24.00;90.47;99231.84;303233;32;873;-76
2022/08/25 00:13:42;;;;;;;382.15;311.88;;;;;;;24.00;90.71;99232.69;298072;32;6559;-76
2022/08/25 00:13:55;;;;;;;381.85;309.00;;;;;;;24.03;90.55;99242.25;300759;32;6294;-76
2022/08/25 00:14:08;;;;;;;380.92;306.35;;;;;;;24.02;90.67;99241.41;303152;32;6520;-76
2022/08/25 00:14:24;;;;;;;376.27;305.60;;;;;;;24.03;90.63;99236.91;299930;32;6611;-75
2022/08/25 00:14:35;;;;;;;377.77;308.63;;;;;;;24.03;90.28;99237.72;297421;32;4997;-75
2022/08/25 00:14:46;;;;;;;385.10;310.98;;;;;;;24.06;90.65;99233.91;296076;33;2227;-75
2022/08/25 00:14:56;;;;;;;386.10;309.37;;;;;;;24.07;90.78;99238.25;294510;33;3278;-75
2022/08/25 00:15:08;;;;;;;384.23;308.20;;;;;;;24.08;90.83;99234.59;294349;33;9650;-75
2022/08/25 00:15:20;;;;;;;380.35;305.13;;;;;;;24.10;90.97;99236.09;293057;33;7298;-75
2022/08/25 00:15:31;;;;;;;382.88;307.48;;;;;;;24.11;90.64;99235.13;293078;33;1334;-76
2022/08/25 00:15:41;;;;;;;379.20;300.60;;;;;;;24.14;90.37;99239.31;292910;33;2306;-75
2022/08/25 00:15:51;;;;;;;377.30;299.30;;;;;;;24.15;90.66;99225.78;291718;33;8482;-75
2022/08/25 00:16:02;;;;;;;376.70;295.47;;;;;;;24.14;90.96;99234.81;289038;33;8848;-75
2022/08/25 00:16:13;;;;;;;379.38;297.63;;;;;;;24.14;90.96;99237.47;293829;33;2058;-75
2022/08/25 00:16:25;;;;;;;379.38;295.60;;;;;;;24.14;90.80;99229.44;288188;33;8216;-75
2022/08/25 00:16:42;;;;;;;379.23;302.30;;;;;;;24.15;90.67;99228.44;285996;34;8897;-75
2022/08/25 00:16:52;;;;;;;379.92;303.42;;;;;;;24.15;91.24;99239.16;288794;33;7624;-75
2022/08/25 00:18:39;;;;;;;377.26;280.15;;;;;;;24.18;91.08;99235.31;2502665;27;20487;-76
2022/08/25 00:18:51;;;;;;;378.07;292.10;;;;;;;24.17;91.29;99234.47;352990;28;939;-76
2022/08/25 00:19:07;;;;;;;386.17;300.95;;;;;;;24.18;90.91;99229.97;348654;28;1407;-76
2022/08/25 00:19:21;;;;;;;387.13;302.63;;;;;;;24.18;91.32;99238.84;348126;28;1533;-76
2022/08/25 00:19:32;;;;;;;387.33;302.23;;;;;;;24.19;90.78;99237.84;348916;28;983;-76
2022/08/25 00:19:43;;;;;;;387.52;307.02;;;;;;;24.18;90.29;99238.84;347496;28;1161;-76
2022/08/25 00:19:53;;;;;;;385.40;310.17;;;;;;;24.19;89.44;99232.50;348955;28;917;-76
2022/08/25 00:20:04;;;;;;;387.87;318.43;;;;;;;24.17;89.69;99231.81;348534;28;1848;-75
2022/08/25 00:20:15;;;;;;;387.20;312.25;;;;;;;24.19;89.91;99231.66;347136;28;2011;-75
2022/08/25 00:20:26;;;;;;;388.23;311.17;;;;;;;24.19;89.77;99232.50;347133;28;1306;-75
2022/08/25 00:20:36;;;;;;;384.58;305.17;;;;;;;24.20;89.87;99234.16;350057;28;992;-75
2022/08/25 00:20:47;;;;;;;385.43;306.10;;;;;;;24.21;89.88;99245.72;346957;28;3762;-75
2022/08/25 00:20:57;;;;;;;383.35;303.25;;;;;;;24.20;89.67;99233.31;345614;28;3620;-75
2022/08/25 00:21:08;;;;;;;381.63;302.10;;;;;;;24.19;89.67;99237.84;347362;28;2042;-75
2022/08/25 00:21:18;;;;;;;378.92;302.42;;;;;;;24.19;89.48;99243.19;346204;28;984;-75
2022/08/25 00:21:30;;;;;;;383.03;308.60;;;;;;;24.18;89.56;99236.16;347508;28;1192;-75
2022/08/25 00:21:41;;;;;;;389.27;309.45;;;;;;;24.14;88.93;99240.16;347555;28;1054;-75
2022/08/25 00:21:51;;;;;;;388.52;306.20;;;;;;;24.13;88.88;99243.81;348245;28;1339;-75
2022/08/25 00:22:02;;;;;;;388.60;305.40;;;;;;;24.16;88.61;99238.16;347951;28;1257;-75
2022/08/25 00:22:13;;;;;;;383.20;304.60;;;;;;;24.15;88.96;99244.50;346088;28;1052;-75
2022/08/25 00:22:23;;;;;;;384.00;308.77;;;;;;;24.16;88.62;99242.66;346271;28;931;-75
2022/08/25 00:22:34;;;;;;;382.17;304.25;;;;;;;24.17;88.83;99245.19;345008;28;1323;-75
2022/08/25 00:22:44;;;;;;;387.13;304.48;;;;;;;24.17;88.95;99247.84;346022;28;892;-75
2022/08/25 00:22:55;;;;;;;387.37;306.83;;;;;;;24.16;88.95;99240.84;345901;28;2141;-75
2022/08/25 00:23:05;;;;;;;386.65;308.10;;;;;;;24.15;88.76;99249.84;348235;28;948;-75
2022/08/25 00:23:16;;;;;;;384.53;309.20;;;;;;;24.14;88.94;99248.16;345691;28;896;-75
2022/08/25 00:23:27;;;;;;;385.48;309.38;;;;;;;24.15;88.76;99255.19;340983;28;3845;-75
2022/08/25 00:23:37;;;;;;;386.30;309.08;;;;;;;24.11;88.88;99247.66;341145;28;3573;-75
2022/08/25 00:23:47;;;;;;;383.87;306.17;;;;;;;24.04;88.66;99249.28;341896;28;2133;-75
2022/08/25 00:23:58;;;;;;;386.90;305.30;;;;;;;23.99;89.09;99247.06;342543;28;1958;-75
2022/08/25 00:24:09;;;;;;;389.25;307.63;;;;;;;23.93;89.49;99250.38;342595;28;1405;-75
2022/08/25 00:24:19;;;;;;;391.42;308.95;;;;;;;23.94;89.79;99245.84;345382;28;999;-75
2022/08/25 00:24:30;;;;;;;392.23;312.42;;;;;;;23.95;89.97;99245.69;343194;28;1355;-75
2022/08/25 00:24:40;;;;;;;390.60;313.67;;;;;;;23.94;89.82;99249.38;340655;29;1216;-75
2022/08/25 00:24:51;;;;;;;383.50;304.10;;;;;;;23.92;89.67;99248.69;340666;29;1060;-75
2022/08/25 00:25:01;;;;;;;381.20;299.80;;;;;;;23.88;90.21;99255.34;341284;28;1190;-75
2022/08/25 00:25:12;;;;;;;382.90;299.07;;;;;;;23.86;89.70;99251.97;341779;28;1228;-75
2022/08/25 00:25:22;;;;;;;388.25;308.15;;;;;;;23.87;90.29;99254.50;340789;28;1243;-75
2022/08/25 00:25:32;;;;;;;388.10;311.27;;;;;;;23.87;90.29;99250.97;342540;28;1263;-75
2022/08/25 00:25:43;;;;;;;387.45;311.42;;;;;;;23.82;90.63;99253.31;342106;28;812;-75
2022/08/25 00:25:54;;;;;;;388.63;315.50;;;;;;;23.78;90.83;99249.28;343383;28;1387;-75
2022/08/25 00:26:04;;;;;;;390.45;315.10;;;;;;;23.78;90.77;99254.63;341476;28;1040;-75
2022/08/25 00:26:15;;;;;;;393.55;316.88;;;;;;;23.80;90.91;99252.63;341879;28;1393;-75
2022/08/25 00:26:26;;;;;;;393.67;316.17;;;;;;;23.82;91.26;99255.97;342124;28;897;-75
2022/08/25 00:26:41;;;;;;;392.58;313.88;;;;;;;23.82;91.02;99248.81;343174;28;1396;-75
2022/08/25 00:26:53;;;;;;;387.85;312.33;;;;;;;23.84;90.89;99251.28;336047;29;1575;-75
2022/08/25 00:27:04;;;;;;;387.80;315.92;;;;;;;23.88;90.90;99252.66;338509;29;2039;-75
2022/08/25 00:27:15;;;;;;;388.57;316.37;;;;;;;23.88;90.32;99250.00;338077;29;1599;-75
2022/08/25 00:27:26;;;;;;;392.77;317.85;;;;;;;23.89;89.77;99257.00;337895;29;1543;-75
2022/08/25 00:27:37;;;;;;;394.45;316.60;;;;;;;23.86;90.03;99251.97;341701;28;1511;-75
2022/08/25 00:27:47;;;;;;;392.63;316.17;;;;;;;23.89;90.18;99257.00;339379;29;886;-75
2022/08/25 00:27:58;;;;;;;385.15;313.73;;;;;;;23.87;89.93;99254.50;339479;29;913;-75
2022/08/25 00:28:09;;;;;;;386.90;315.03;;;;;;;23.89;90.16;99257.00;338109;29;1198;-75
2022/08/25 00:28:19;;;;;;;389.88;313.67;;;;;;;23.90;90.08;99253.34;335823;29;1092;-75
2022/08/25 00:28:30;;;;;;;392.10;318.02;;;;;;;23.93;89.97;99257.53;336251;29;1536;-75
2022/08/25 00:28:40;;;;;;;389.50;316.17;;;;;;;23.94;90.14;99254.72;334762;29;1995;-75
2022/08/25 00:28:52;;;;;;;391.10;317.73;;;;;;;23.98;90.37;99255.25;334131;29;1977;-75
2022/08/25 00:29:02;;;;;;;391.50;316.65;;;;;;;23.99;89.64;99255.09;333167;29;1736;-75
2022/08/25 00:29:13;;;;;;;390.40;313.57;;;;;;;23.99;89.63;99252.41;332758;29;2061;-75
2022/08/25 00:29:26;;;;;;;386.83;311.00;;;;;;;23.99;89.26;99255.09;335626;29;987;-75
2022/08/25 00:29:37;;;;;;;388.30;310.73;;;;;;;24.01;88.95;99255.78;336626;29;2253;-75
2022/08/25 00:29:47;;;;;;;389.40;310.20;;;;;;;24.01;89.11;99255.78;337323;29;1534;-75
2022/08/25 00:29:59;;;;;;;391.73;310.50;;;;;;;24.02;88.98;99254.78;331005;29;3519;-75
2022/08/25 00:30:10;;;;;;;389.38;308.58;;;;;;;24.03;89.58;99253.78;331701;29;1594;-75
2022/08/25 00:30:21;;;;;;;387.95;311.60;;;;;;;24.05;89.65;99253.63;331891;29;1966;-75
2022/08/25 00:30:31;;;;;;;388.52;314.48;;;;;;;24.06;89.59;99253.47;330924;29;1806;-75
2022/08/25 00:30:42;;;;;;;388.40;316.90;;;;;;;24.07;89.46;99254.31;328085;30;909;-75
2022/08/25 00:30:53;;;;;;;390.55;318.67;;;;;;;24.09;89.47;99253.16;325488;30;1266;-75
2022/08/25 00:31:03;;;;;;;390.63;314.95;;;;;;;24.05;88.41;99249.13;325883;30;2465;-75
2022/08/25 00:31:15;;;;;;;390.27;312.70;;;;;;;24.05;88.20;99253.63;322561;30;2430;-75
2022/08/25 00:31:26;;;;;;;389.83;309.80;;;;;;;24.07;88.36;99249.78;321967;30;1099;-75
2022/08/25 00:31:37;;;;;;;389.67;312.02;;;;;;;24.08;88.46;99251.47;328067;30;2684;-75
2022/08/25 00:31:47;;;;;;;388.45;313.48;;;;;;;24.09;88.21;99253.16;326388;30;2797;-75
2022/08/25 00:31:58;;;;;;;388.03;313.63;;;;;;;24.10;87.24;99249.47;323091;30;1426;-75
2022/08/25 00:32:08;;;;;;;385.30;308.58;;;;;;;24.11;87.22;99251.16;322124;30;1411;-75
2022/08/25 00:32:19;;;;;;;385.73;304.43;;;;;;;24.08;86.99;99250.63;321769;30;1253;-75
2022/08/25 00:32:29;;;;;;;387.73;310.30;;;;;;;24.06;86.68;99253.47;319544;30;2081;-75
2022/08/25 00:32:39;;;;;;;386.57;312.50;;;;;;;24.07;87.01;99248.97;317218;30;4377;-75
2022/08/25 00:32:50;;;;;;;385.37;313.37;;;;;;;24.08;87.15;99251.47;316580;30;3164;-75
2022/08/25 00:33:00;;;;;;;382.70;305.13;;;;;;;24.09;87.14;99247.81;316565;31;2833;-75
2022/08/25 00:33:11;;;;;;;388.53;309.90;;;;;;;24.10;87.01;99249.47;313749;31;1963;-75
2022/08/25 00:33:21;;;;;;;387.80;309.27;;;;;;;24.11;87.45;99251.16;316295;31;4480;-75
2022/08/25 00:33:32;;;;;;;387.30;311.03;;;;;;;24.12;87.17;99244.81;317727;30;3395;-76
2022/08/25 00:33:43;;;;;;;384.85;308.58;;;;;;;24.14;87.07;99247.34;315993;31;1368;-75
2022/08/25 00:33:54;;;;;;;384.35;303.48;;;;;;;24.15;87.33;99241.81;315184;31;949;-75
2022/08/25 00:34:08;;;;;;;384.85;300.85;;;;;;;24.16;86.80;99251.53;312282;31;3438;-75
2022/08/25 00:34:24;;;;;;;383.00;301.48;;;;;;;24.18;86.81;99238.00;312748;31;2475;-76
2022/08/25 00:34:35;;;;;;;381.73;304.10;;;;;;;24.19;87.20;99245.03;313945;31;2302;-76
2022/08/25 00:34:46;;;;;;;383.73;305.95;;;;;;;24.19;86.98;99243.19;310949;31;2935;-76
2022/08/25 00:34:56;;;;;;;385.33;305.23;;;;;;;24.19;87.25;99235.16;310711;31;926;-76
2022/08/25 00:35:06;;;;;;;382.73;305.08;;;;;;;24.19;87.24;99239.69;308836;31;3737;-76
2022/08/25 00:35:17;;;;;;;382.43;302.97;;;;;;;24.20;87.08;99247.53;309684;31;3935;-76
2022/08/25 00:35:27;;;;;;;383.13;308.90;;;;;;;24.19;87.58;99232.50;310129;31;1336;-76
2022/08/25 00:35:39;;;;;;;383.85;307.05;;;;;;;24.20;87.30;99234.16;304210;32;971;-76
2022/08/25 00:35:51;;;;;;;383.98;307.25;;;;;;;24.20;87.64;99236.84;304424;32;4511;-76
2022/08/25 00:36:01;;;;;;;381.15;301.48;;;;;;;24.20;87.98;99244.88;303300;32;4459;-76
2022/08/25 00:36:12;;;;;;;383.13;304.27;;;;;;;24.22;87.48;99234.00;303140;32;834;-76
2022/08/25 00:36:22;;;;;;;382.27;303.50;;;;;;;24.21;87.43;99241.19;302526;32;4864;-76
2022/08/25 00:36:33;;;;;;;383.40;300.63;;;;;;;24.21;87.71;99235.84;302709;32;3325;-76
2022/08/25 00:36:43;;;;;;;380.88;300.33;;;;;;;24.21;87.44;99230.50;303701;32;3365;-76
2022/08/25 00:36:54;;;;;;;381.97;304.73;;;;;;;24.21;87.04;99237.69;304257;32;928;-76
2022/08/25 00:37:08;;;;;;;384.00;306.17;;;;;;;24.20;87.01;99231.50;300419;32;4384;-76
2022/08/25 00:37:19;;;;;;;384.80;300.55;;;;;;;24.19;87.17;99237.84;296000;33;5314;-76
2022/08/25 00:37:29;;;;;;;382.92;296.58;;;;;;;24.19;87.00;99232.50;295900;32;5591;-76
2022/08/25 00:37:40;;;;;;;386.37;299.27;;;;;;;24.20;87.38;99233.31;300016;32;1316;-76
2022/08/25 00:37:50;;;;;;;387.50;304.60;;;;;;;24.21;87.10;99240.34;297373;33;6285;-75
2022/08/25 00:38:00;;;;;;;388.08;309.98;;;;;;;24.19;87.01;99232.50;297156;33;6090;-75
2022/08/25 00:38:11;;;;;;;385.87;305.43;;;;;;;24.19;87.31;99235.16;296070;33;1689;-75
2022/08/25 00:38:21;;;;;;;386.25;297.48;;;;;;;24.18;86.85;99236.16;295870;33;6109;-75
2022/08/25 00:38:32;;;;;;;389.73;301.80;;;;;;;24.18;87.09;99228.13;290564;33;6115;-75
2022/08/25 00:38:43;;;;;;;389.58;310.10;;;;;;;24.15;86.76;99231.13;293164;33;1314;-76
2022/08/25 00:38:54;;;;;;;388.33;317.55;;;;;;;24.17;87.25;99230.97;289549;33;1755;-75
2022/08/25 00:39:05;;;;;;;384.45;310.90;;;;;;;24.17;87.25;99236.31;288229;33;6522;-76
2022/08/25 00:39:15;;;;;;;384.48;304.60;;;;;;;24.16;86.96;99231.97;288996;33;6271;-75
2022/08/25 00:39:26;;;;;;;384.93;301.57;;;;;;;24.16;87.30;99230.13;291090;33;1667;-76
2022/08/25 00:39:37;;;;;;;384.70;304.58;;;;;;;24.15;87.34;99228.44;292481;33;7300;-76
2022/08/25 00:39:47;;;;;;;382.63;308.20;;;;;;;24.17;87.01;99229.13;289616;33;7563;-76
2022/08/25 00:39:58;;;;;;;382.17;306.67;;;;;;;24.18;86.77;99232.66;288047;33;8377;-75
2022/08/25 00:40:09;;;;;;;380.27;304.17;;;;;;;24.18;86.73;99240.66;292049;33;858;-76
2022/08/25 00:40:19;;;;;;;378.33;300.60;;;;;;;24.18;86.62;99235.31;289752;33;8545;-76
2022/08/25 00:40:29;;;;;;;376.20;297.70;;;;;;;24.18;86.92;99230.81;286992;34;8392;-75
2022/08/25 00:40:40;;;;;;;377.95;290.65;;;;;;;24.17;86.96;99231.81;287148;34;1495;-75
2022/08/25 00:41:04;;;;;;;380.47;291.43;;;;;;;24.19;87.00;99234.31;286973;34;8980;-75
2022/08/25 00:41:19;;;;;;;388.50;295.90;;;;;;;24.18;86.81;99236.16;282301;34;7225;-75
2022/08/25 00:41:30;;;;;;;382.67;293.45;;;;;;;24.18;86.73;99236.16;280376;34;8171;-76
2022/08/25 00:41:41;;;;;;;381.23;297.83;;;;;;;24.18;86.86;99236.16;279037;35;1706;-76
2022/08/25 00:41:54;;;;;;;385.17;309.80;;;;;;;24.18;86.95;99235.31;276584;35;10194;-76
2022/08/25 00:42:05;;;;;;;386.50;308.90;;;;;;;24.17;87.03;99234.47;279102;35;10774;-76
2022/08/25 00:42:19;;;;;;;387.13;307.23;;;;;;;24.17;86.98;99239.84;277596;35;11345;-76
2022/08/25 00:44:12;;;;;;;309.29;236.38;;;;;;;24.18;86.53;99229.97;2491688;27;20493;-75
2022/08/25 00:44:24;;;;;;;383.73;297.37;;;;;;;24.17;86.65;99234.47;354462;27;914;-75
2022/08/25 00:44:34;;;;;;;386.52;289.95;;;;;;;24.17;86.18;99229.13;351688;28;1049;-76
2022/08/25 00:44:46;;;;;;;384.93;294.30;;;;;;;24.19;86.73;99235.16;350289;28;912;-75
2022/08/25 00:44:57;;;;;;;382.60;291.58;;;;;;;24.20;86.61;99239.50;348949;28;891;-75
2022/08/25 00:45:08;;;;;;;376.90;294.27;;;;;;;24.19;86.12;99227.13;345951;28;1644;-75
2022/08/25 00:45:18;;;;;;;374.48;289.75;;;;;;;24.19;86.17;99237.84;345949;28;1659;-75
2022/08/25 00:45:30;;;;;;;377.80;292.88;;;;;;;24.20;86.04;99238.69;345885;28;1298;-75
2022/08/25 00:45:40;;;;;;;381.45;293.67;;;;;;;24.20;86.19;99234.16;346076;28;1206;-75
2022/08/25 00:45:50;;;;;;;386.47;294.50;;;;;;;24.20;85.89;99239.50;346801;28;939;-76
2022/08/25 00:46:01;;;;;;;384.17;293.60;;;;;;;24.19;86.09;99232.50;347468;28;1335;-76
2022/08/25 00:46:14;;;;;;;381.90;296.00;;;;;;;24.19;86.26;99235.16;348985;28;946;-76
2022/08/25 00:46:29;;;;;;;380.63;299.02;;;;;;;24.19;86.38;99231.66;348746;28;1696;-76
2022/08/25 00:46:46;;;;;;;379.67;295.90;;;;;;;24.20;86.48;99231.50;348712;28;937;-76
2022/08/25 00:46:59;;;;;;;379.02;294.27;;;;;;;24.20;86.01;99226.16;351484;28;1557;-76
2022/08/25 00:47:09;;;;;;;382.10;295.63;;;;;;;24.17;86.56;99218.44;351673;28;878;-76
2022/08/25 00:47:19;;;;;;;385.17;299.83;;;;;;;24.18;86.47;99224.63;350145;28;843;-76
2022/08/25 00:47:30;;;;;;;384.75;304.13;;;;;;;24.18;86.36;99233.50;350288;28;875;-76
2022/08/25 00:47:40;;;;;;;385.07;309.27;;;;;;;24.19;86.62;99231.66;349685;28;1985;-76
2022/08/25 00:47:51;;;;;;;384.45;308.58;;;;;;;24.18;86.76;99232.66;352216;28;879;-76
2022/08/25 00:48:01;;;;;;;382.00;305.07;;;;;;;24.17;86.64;99226.47;350841;28;3457;-76
2022/08/25 00:48:12;;;;;;;383.88;302.55;;;;;;;24.18;86.54;99230.81;350086;28;1216;-75
2022/08/25 00:48:22;;;;;;;382.73;304.73;;;;;;;24.18;86.54;99229.97;347309;28;837;-75
2022/08/25 00:48:32;;;;;;;381.63;301.88;;;;;;;24.16;86.77;99222.09;350787;28;1552;-75
2022/08/25 00:48:44;;;;;;;378.03;297.00;;;;;;;24.17;86.63;99223.78;351749;28;804;-75
2022/08/25 00:49:06;;;;;;;378.67;295.40;;;;;;;24.16;87.24;99230.13;347692;28;880;-75
2022/08/25 00:49:26;;;;;;;383.20;302.48;;;;;;;24.15;86.99;99222.25;346171;28;868;-75
2022/08/25 00:49:38;;;;;;;384.85;304.08;;;;;;;24.15;87.14;99225.78;343254;28;1684;-75
2022/08/25 00:49:56;;;;;;;386.17;305.63;;;;;;;24.14;86.98;99224.09;344716;28;1024;-75
2022/08/25 00:50:07;;;;;;;382.88;303.58;;;;;;;24.13;86.48;99224.25;340833;28;1530;-75
2022/08/25 00:50:17;;;;;;;378.83;296.40;;;;;;;24.12;86.75;99220.75;341431;28;1411;-75
2022/08/25 00:50:28;;;;;;;379.90;292.07;;;;;;;24.11;86.61;99224.41;347430;28;1192;-75
2022/08/25 00:50:39;;;;;;;378.27;291.98;;;;;;;24.11;86.53;99227.09;344667;28;1115;-75
2022/08/25 00:50:49;;;;;;;381.58;300.42;;;;;;;24.09;86.61;99226.41;343690;28;1230;-75
2022/08/25 00:51:00;;;;;;;383.57;306.07;;;;;;;24.08;86.80;99222.06;343753;28;3890;-75
2022/08/25 00:51:12;;;;;;;383.33;300.48;;;;;;;24.09;86.89;99221.06;339529;28;5169;-75
2022/08/25 00:51:27;;;;;;;383.10;295.20;;;;;;;24.11;87.05;99228.94;344305;28;951;-75
2022/08/25 00:51:43;;;;;;;383.85;294.90;;;;;;;24.10;87.00;99219.22;341630;28;5263;-75
2022/08/25 00:52:34;;;;;;;382.80;296.63;;;;;;;24.02;87.66;99220.00;344552;28;1326;-75
2022/08/25 00:52:47;;;;;;;381.02;299.35;;;;;;;24.01;87.96;99218.34;342098;28;1141;-75
2022/08/25 00:52:58;;;;;;;381.00;299.08;;;;;;;23.99;88.13;99211.47;336829;29;984;-75
2022/08/25 00:53:09;;;;;;;381.05;296.75;;;;;;;23.97;87.93;99214.31;339956;29;1401;-75
2022/08/25 00:53:19;;;;;;;385.63;303.00;;;;;;;23.98;88.01;99213.31;341211;28;959;-75
2022/08/25 00:53:30;;;;;;;382.65;301.75;;;;;;;23.96;87.99;99220.63;339149;29;1946;-75
2022/08/25 00:53:40;;;;;;;384.07;302.80;;;;;;;23.97;87.95;99222.31;335399;29;1677;-75
2022/08/25 00:53:51;;;;;;;381.35;295.63;;;;;;;23.99;88.10;99219.50;338752;29;1843;-76
2022/08/25 00:54:02;;;;;;;383.43;296.27;;;;;;;23.99;88.04;99209.63;337703;29;1861;-76
2022/08/25 00:54:16;;;;;;;380.63;298.25;;;;;;;24.00;88.01;99216.66;331757;29;1788;-76
2022/08/25 00:54:29;;;;;;;379.33;301.42;;;;;;;24.00;87.69;99211.31;324366;30;1551;-76
2022/08/25 00:54:46;;;;;;;378.02;298.75;;;;;;;24.00;87.70;99211.31;328529;29;1930;-76
2022/08/25 00:55:20;;;;;;;379.08;301.02;;;;;;;24.01;88.16;99215.66;328072;30;1274;-76
2022/08/25 00:55:36;;;;;;;382.92;302.20;;;;;;;24.01;88.12;99212.16;322084;30;1312;-75
2022/08/25 00:55:46;;;;;;;383.70;303.55;;;;;;;24.02;87.93;99213.81;321754;30;1418;-75
2022/08/25 00:55:57;;;;;;;381.73;303.45;;;;;;;24.02;87.81;99214.66;320928;30;1013;-75
2022/08/25 00:56:08;;;;;;;385.70;305.23;;;;;;;24.03;87.65;99210.16;320085;30;1899;-75
2022/08/25 00:56:19;;;;;;;390.00;312.48;;;;;;;24.05;87.63;99216.19;321425;30;2109;-75
2022/08/25 00:56:30;;;;;;;393.60;308.93;;;;;;;24.06;87.49;99205.34;323222;30;979;-75